首页
METAR-TAF:

METAR-TAF

机场 :

Petawawa, 安大略省, 加拿大

纬度: 45-57N, 经度: 077-19W, 海拔: 130米

当前天气观测

该预报发布于32分钟前的19:00 UTC
风速7节,风向西北,在西北转西北之间变化
温度 -9°C
湿度 44%
气压 1026 hPa
能見度: 14.5公里
散云层高于4500英尺

METAR: CYWA 191900Z AUTO 31007KT 260V340 9SM SCT045 M09/M19 A3031 RMK SLP275

时间: 14:32 (19:32 UTC)

预报

该预报发布于2小时和2分钟前的17:30 UTC
预报有效从19日的 18点(UTC)到 20日的 06点(UTC)
风速12节,风向西转西北,有时为22节阵风
能見度: 10公里
散云层高于3000英尺
成为
从 19日的 22点(UTC)到 19日的 24点(UTC)
风速8节,风向西北
多云层高于3000英尺

TAF: CYWA 191730Z 1918/2006 29012G22KT P6SM SCT030 BECMG 1922/1924 31008KT BKN030 RMK FCST BASED ON AUTO OBS. NXT FCST BY 200000Z

超过4000个机场的气象观测和天气预报(METAR&TAF报告)。

可查询的气象台以黄色和红色小点在地图上表示。

将鼠标移到小点上方,可查看气象台名称。

然后点击查看天气观测和预报。

如需切换地图:点击带黑十字的绿色按钮放大地图;点击带横线的绿色按钮缩小地图;或者点击绿色箭头查看邻近地区的地图。


METAR-TAF: